Погода Сороколетовона неделю

Смоленская область, Россия

24 - 30 мая
  • 24мая
    Сегодня
    +6°
    +21°
    Ясно и безоблачно
    ВремяПогодаТемператураВлажностьДавлениеВетер, м/сВероятность осадков
    00:00Ясно и безоблачно+11°C57 %751 мм2.7 м/с2 %
    03:00Ясно и безоблачно+8°C60 %752 мм2.5 м/с2 %
    06:00Ясно и безоблачно+9°C64 %753 мм2.3 м/с2 %
    09:00Ясно и безоблачно+16°C50 %754 мм2.2 м/с2 %
    12:00Ясно и безоблачно+19°C36 %754 мм3.1 м/с2 %
    15:00Ясно и безоблачно+21°C34 %753 мм3.1 м/с2 %
    18:00Ясно и безоблачно+21°C38 %752 мм2.9 м/с2 %
    21:00Ясно и безоблачно+15°C57 %752 мм2.4 м/с2 %
  • 25мая
    Суббота
    +8°
    +24°
    Ясно и безоблачно
    ВремяПогодаТемператураВлажностьДавлениеВетер, м/сВероятность осадков
    00:00Ясно и безоблачно+9°C63 %752 мм2.5 м/с2 %
    03:00Ясно и безоблачно+7°C69 %752 мм2.5 м/с2 %
    06:00Ясно и безоблачно+8°C69 %752 мм2.6 м/с2 %
    09:00Ясно и безоблачно+17°C53 %752 мм1.6 м/с2 %
    12:00Практически безоблачно+21°C38 %751 мм2.2 м/с2 %
    15:00Ясно и безоблачно+23°C34 %750 мм2.6 м/с2 %
    18:00Ясно и безоблачно+23°C35 %749 мм2.2 м/с2 %
    21:00Ясно и безоблачно+17°C64 %748 мм2.4 м/с2 %
  • 26мая
    Воскресенье
    +9°
    +25°
    Небольшая облачность
    ВремяПогодаТемператураВлажностьДавлениеВетер, м/сВероятность осадков
    00:00Ясно и безоблачно+11°C66 %747 мм2.6 м/с2 %
    03:00Ясно и безоблачно+9°C79 %747 мм1.7 м/с2 %
    06:00Ясно и безоблачно+10°C80 %747 мм2.3 м/с2 %
    09:00Ясно и безоблачно+20°C54 %748 мм1.4 м/с2 %
    12:00Облачно с прояснениями+23°C38 %748 мм2.0 м/с3 %
    15:00Небольшая облачность+25°C39 %747 мм2.2 м/с17 %
    18:00Небольшая облачность+22°C54 %747 мм3.1 м/с23 %
    21:00Практически безоблачно+18°C80 %748 мм2.1 м/с7 %
  • 27мая
    Понедельник
    +10°
    +24°
    Небольшая облачность
    ВремяПогодаТемператураВлажностьДавлениеВетер, м/сВероятность осадков
    00:00Ясно и безоблачно+14°C92 %748 мм2.1 м/с2 %
    03:00Ясно и безоблачно+12°C89 %748 мм2.9 м/с2 %
    06:00Ясно и безоблачно+10°C68 %749 мм2.3 м/с3 %
    09:00Ясно и безоблачно+18°C58 %750 мм1.9 м/с2 %
    12:00Практически безоблачно+22°C45 %749 мм2.4 м/с16 %
    15:00Небольшая облачность+23°C38 %749 мм1.9 м/с23 %
    18:00Ясно и безоблачно+23°C40 %748 мм1.5 м/с21 %
    21:00Ясно и безоблачно+19°C59 %748 мм2.6 м/с4 %
  • 28мая
    Вторник
    +9°
    +25°
    Практически безоблачно
    ВремяПогодаТемператураВлажностьДавлениеВетер, м/сВероятность осадков
    00:00Ясно и безоблачно+13°C80 %748 мм1.8 м/с2 %
    03:00Ясно и безоблачно+11°C83 %748 мм2.5 м/с2 %
    06:00Ясно и безоблачно+11°C80 %748 мм2.2 м/с2 %
    09:00Ясно и безоблачно+21°C57 %748 мм1.8 м/с2 %
    12:00Практически безоблачно+24°C42 %748 мм2.1 м/с9 %
    15:00Практически безоблачно+24°C36 %747 мм1.3 м/с15 %
    18:00Облачно с прояснениями+25°C35 %746 мм1.3 м/с19 %
    21:00Ясно и безоблачно+19°C53 %746 мм2.2 м/с5 %
Мы используем cookies
Соглашаюсь